TAP192 LPPR-LPPT
Flight info
| Callsign | TAP192 |
|---|---|
| Flight time | N/A |
| Altitude | 22998 |
| Route | MANIK DCT ABRIL DCT XAMAX |
| Aircraft | A320/M-SDE3FGHIRWY/LB1 |
Departure
| Time | 2026-05-07 20:47 |
|---|---|
| Airport | Francisco de Sá Carneiro Airport (LPPR) |
Arrival
| Time | N/A |
|---|---|
| Airport | Lisbon Humberto Delgado Airport (LPPT) |
| Time | Latitude | Longitude | Altitude | Speed | Heading |
|---|---|---|---|---|---|
| 2026-05-07 20:28 | 41.23549 | -8.67229 | 245 ft | 0 kts | 109° |
| 2026-05-07 20:35 | 41.23552 | -8.67238 | 245 ft | 4 kts | 111° |
| 2026-05-07 20:36 | 41.23563 | -8.67271 | 245 ft | 4 kts | 122° |
| 2026-05-07 20:36 | 41.23579 | -8.67299 | 243 ft | 4 kts | 138° |
| 2026-05-07 20:36 | 41.23601 | -8.67319 | 242 ft | 4 kts | 156° |
| 2026-05-07 20:36 | 41.23626 | -8.67330 | 242 ft | 4 kts | 168° |
| 2026-05-07 20:37 | 41.23633 | -8.67332 | 242 ft | 0 kts | 168° |
| 2026-05-07 20:39 | 41.23627 | -8.67330 | 242 ft | 7 kts | 168° |
| 2026-05-07 20:39 | 41.23550 | -8.67361 | 241 ft | 12 kts | 211° |
| 2026-05-07 20:39 | 41.23473 | -8.67383 | 240 ft | 11 kts | 169° |
| 2026-05-07 20:40 | 41.23399 | -8.67365 | 239 ft | 10 kts | 170° |
| 2026-05-07 20:40 | 41.23335 | -8.67420 | 239 ft | 13 kts | 255° |
| 2026-05-07 20:40 | 41.23318 | -8.67532 | 235 ft | 12 kts | 258° |
| 2026-05-07 20:40 | 41.23307 | -8.67605 | 236 ft | 0 kts | 259° |
| 2026-05-07 20:44 | 41.23298 | -8.67672 | 237 ft | 13 kts | 266° |
| 2026-05-07 20:44 | 41.23327 | -8.67733 | 238 ft | 17 kts | 328° |
| 2026-05-07 20:44 | 41.23422 | -8.67763 | 237 ft | 0 kts | 349° |
| 2026-05-07 20:46 | 41.23474 | -8.67776 | 237 ft | 34 kts | 349° |
| 2026-05-07 20:46 | 41.23984 | -8.67910 | 224 ft | 117 kts | 349° |
| 2026-05-07 20:46 | 41.24994 | -8.68175 | 429 ft | 165 kts | 349° |
| 2026-05-07 20:47 | 41.26137 | -8.68477 | 1377 ft | 169 kts | 349° |
| 2026-05-07 20:47 | 41.27316 | -8.68789 | 2051 ft | 182 kts | 348° |
| 2026-05-07 20:47 | 41.28629 | -8.69139 | 2415 ft | 204 kts | 348° |
| 2026-05-07 20:47 | 41.30105 | -8.69531 | 2861 ft | 227 kts | 349° |
| 2026-05-07 20:48 | 41.31728 | -8.69962 | 3380 ft | 249 kts | 348° |
| 2026-05-07 20:48 | 41.33466 | -8.70420 | 4190 ft | 257 kts | 349° |
| 2026-05-07 20:48 | 41.35241 | -8.70880 | 5124 ft | 262 kts | 349° |
| 2026-05-07 20:48 | 41.37040 | -8.71344 | 6038 ft | 266 kts | 349° |
| 2026-05-07 20:49 | 41.38849 | -8.71939 | 6936 ft | 270 kts | 337° |
| 2026-05-07 20:49 | 41.40399 | -8.73351 | 7786 ft | 274 kts | 313° |
| 2026-05-07 20:49 | 41.41386 | -8.75523 | 8652 ft | 279 kts | 288° |
| 2026-05-07 20:49 | 41.41613 | -8.78099 | 9495 ft | 284 kts | 264° |
| 2026-05-07 20:50 | 41.41139 | -8.80663 | 10124 ft | 289 kts | 245° |
| 2026-05-07 20:50 | 41.39979 | -8.82913 | 10624 ft | 307 kts | 223° |
| 2026-05-07 20:50 | 41.38090 | -8.84413 | 10901 ft | 331 kts | 196° |
| 2026-05-07 20:50 | 41.35731 | -8.84610 | 11132 ft | 353 kts | 172° |
| 2026-05-07 20:51 | 41.33271 | -8.84032 | 11645 ft | 363 kts | 168° |
| 2026-05-07 20:51 | 41.30777 | -8.83352 | 12354 ft | 368 kts | 168° |
| 2026-05-07 20:51 | 41.28260 | -8.82635 | 13075 ft | 371 kts | 168° |
| 2026-05-07 20:51 | 41.25753 | -8.81924 | 13759 ft | 375 kts | 168° |
| 2026-05-07 20:52 | 41.23183 | -8.81207 | 14430 ft | 379 kts | 168° |
| 2026-05-07 20:52 | 41.20589 | -8.80499 | 15078 ft | 383 kts | 168° |
| 2026-05-07 20:52 | 41.17965 | -8.79803 | 15707 ft | 386 kts | 169° |
| 2026-05-07 20:52 | 41.15317 | -8.79108 | 16317 ft | 390 kts | 169° |
| 2026-05-07 20:53 | 41.12642 | -8.78407 | 16906 ft | 393 kts | 169° |
| 2026-05-07 20:53 | 41.09947 | -8.77699 | 17472 ft | 396 kts | 169° |
| 2026-05-07 20:53 | 41.07231 | -8.76986 | 18021 ft | 400 kts | 169° |
| 2026-05-07 20:53 | 41.04526 | -8.76087 | 18565 ft | 403 kts | 162° |
| 2026-05-07 20:54 | 41.01835 | -8.74978 | 19089 ft | 406 kts | 162° |
| 2026-05-07 20:54 | 40.99128 | -8.73861 | 19600 ft | 409 kts | 162° |
| 2026-05-07 20:54 | 40.96402 | -8.72738 | 20101 ft | 412 kts | 162° |
| 2026-05-07 20:54 | 40.93655 | -8.71608 | 20599 ft | 415 kts | 162° |
| 2026-05-07 20:55 | 40.90890 | -8.70471 | 21063 ft | 418 kts | 162° |
| 2026-05-07 20:55 | 40.88098 | -8.69325 | 21534 ft | 421 kts | 162° |
| 2026-05-07 20:55 | 40.85289 | -8.68177 | 21991 ft | 424 kts | 162° |
| 2026-05-07 20:55 | 40.82493 | -8.67037 | 22423 ft | 426 kts | 163° |
| 2026-05-07 20:56 | 40.79651 | -8.65877 | 22855 ft | 429 kts | 162° |
| 2026-05-07 20:56 | 40.76791 | -8.64708 | 23151 ft | 431 kts | 162° |
| 2026-05-07 20:56 | 40.73914 | -8.63534 | 23218 ft | 438 kts | 163° |
| 2026-05-07 20:56 | 40.70959 | -8.62337 | 23221 ft | 449 kts | 164° |
| 2026-05-07 20:57 | 40.67885 | -8.61472 | 23219 ft | 453 kts | 172° |
| 2026-05-07 20:57 | 40.64739 | -8.61067 | 23220 ft | 455 kts | 175° |
| 2026-05-07 20:57 | 40.61586 | -8.60694 | 23219 ft | 455 kts | 175° |